createdAt,value
2023-02-09T00:02:16.363Z,0.10
2023-02-09T00:04:43.108Z,1.75
2023-02-09T00:07:09.830Z,0.52
2023-02-09T00:09:36.555Z,0.30
2023-02-09T00:12:21.874Z,0.00
2023-02-09T00:14:48.651Z,0.30
2023-02-09T00:17:15.373Z,0.93
2023-02-09T00:19:42.194Z,0.30
2023-02-09T00:22:08.893Z,0.00
2023-02-09T00:24:36.365Z,0.40
2023-02-09T00:27:03.142Z,0.00
2023-02-09T00:29:31.472Z,1.75
2023-02-09T00:31:58.239Z,0.25
2023-02-09T00:34:24.985Z,0.85
2023-02-09T00:36:51.647Z,0.00
2023-02-09T00:39:18.499Z,0.35
2023-02-09T00:42:03.841Z,1.55
2023-02-09T00:44:30.642Z,0.88
2023-02-09T00:46:57.773Z,0.38
2023-02-09T00:49:24.588Z,0.10
2023-02-09T00:51:51.258Z,0.75
2023-02-09T00:54:18.942Z,0.00
2023-02-09T00:56:46.029Z,0.10
2023-02-09T00:59:13.374Z,1.13
2023-02-09T01:01:40.372Z,0.03
2023-02-09T01:04:08.390Z,0.10
2023-02-09T01:06:35.314Z,0.28
2023-02-09T01:09:02.468Z,0.10
2023-02-09T01:11:29.893Z,0.15
2023-02-09T01:13:58.375Z,0.47
2023-02-09T01:16:25.851Z,0.10
2023-02-09T01:18:52.652Z,0.00
2023-02-09T01:21:21.120Z,0.00
2023-02-09T01:23:48.607Z,0.10
2023-02-09T01:26:18.086Z,0.10
2023-02-09T01:28:45.054Z,2.10
2023-02-09T01:31:38.208Z,0.10
2023-02-09T01:34:05.982Z,0.40
2023-02-09T01:36:33.784Z,0.20
2023-02-09T01:39:02.151Z,1.38
2023-02-09T01:41:29.001Z,0.00
2023-02-09T01:44:01.830Z,1.95
2023-02-09T01:46:30.998Z,0.05
2023-02-09T01:49:17.753Z,0.00
2023-02-09T01:52:03.649Z,0.90
2023-02-09T01:54:46.729Z,0.00
2023-02-09T01:57:26.080Z,0.10
2023-02-09T02:00:17.140Z,0.10
2023-02-09T02:02:48.154Z,0.00
2023-02-09T02:05:15.351Z,0.00
2023-02-09T02:08:02.089Z,0.25
2023-02-09T02:10:29.681Z,0.32
2023-02-09T02:12:57.466Z,2.60
2023-02-09T02:15:27.624Z,1.10
2023-02-09T02:17:58.865Z,0.00
2023-02-09T02:20:25.650Z,0.70
2023-02-09T02:23:07.660Z,0.15
2023-02-09T02:25:56.280Z,1.45
2023-02-09T02:28:31.934Z,0.03
2023-02-09T02:31:10.968Z,0.47
2023-02-09T02:33:47.849Z,0.00
2023-02-09T02:36:45.636Z,0.30
2023-02-09T02:39:19.393Z,4.03
2023-02-09T02:42:04.589Z,1.85
2023-02-09T02:44:32.233Z,0.20
2023-02-09T02:47:01.674Z,0.10
2023-02-09T02:49:54.207Z,1.35
2023-02-09T02:52:20.985Z,1.75
2023-02-09T02:55:06.588Z,1.45
2023-02-09T02:57:34.065Z,0.20
2023-02-09T03:00:09.277Z,0.00
2023-02-09T03:02:47.750Z,0.25
2023-02-09T03:05:17.105Z,0.10
2023-02-09T03:07:43.891Z,3.83
2023-02-09T03:10:36.637Z,0.50
2023-02-09T03:13:12.364Z,1.17
2023-02-09T03:15:49.374Z,0.20
2023-02-09T03:18:53.110Z,1.05
2023-02-09T03:21:47.058Z,0.10
2023-02-09T03:24:23.719Z,0.20
2023-02-09T03:27:05.080Z,0.00
2023-02-09T03:29:33.755Z,0.20
2023-02-09T03:32:00.484Z,0.00
2023-02-09T03:34:27.697Z,0.15
2023-02-09T03:36:55.739Z,0.22
2023-02-09T03:39:22.509Z,0.40
2023-02-09T03:41:49.320Z,0.00
2023-02-09T03:44:28.176Z,0.00
2023-02-09T03:47:00.750Z,0.00
2023-02-09T03:49:32.305Z,0.20
2023-02-09T03:52:00.903Z,0.10
2023-02-09T03:54:29.352Z,0.10
2023-02-09T03:56:57.500Z,0.00
2023-02-09T03:59:27.903Z,1.55
2023-02-09T04:01:58.484Z,0.80
2023-02-09T04:04:26.179Z,0.52
2023-02-09T04:06:53.905Z,0.20
2023-02-09T04:09:20.682Z,0.73
2023-02-09T04:11:49.075Z,2.47
2023-02-09T04:14:15.816Z,1.45
2023-02-09T04:16:42.508Z,0.45
2023-02-09T04:19:09.843Z,0.03
2023-02-09T04:21:37.983Z,0.00
2023-02-09T04:24:06.027Z,0.93
2023-02-09T04:26:33.209Z,0.47
2023-02-09T04:29:00.062Z,0.30
2023-02-09T04:31:27.113Z,1.48
2023-02-09T04:33:54.074Z,0.08
2023-02-09T04:36:28.742Z,0.85
2023-02-09T04:38:56.566Z,0.30
2023-02-09T04:41:23.231Z,1.20
2023-02-09T04:43:50.105Z,0.10
2023-02-09T04:46:18.165Z,0.22
2023-02-09T04:48:45.447Z,1.38
2023-02-09T04:51:12.681Z,0.10
2023-02-09T04:53:39.460Z,0.40
2023-02-09T04:56:06.526Z,0.43
2023-02-09T04:58:51.795Z,0.17
2023-02-09T05:01:21.682Z,2.15
2023-02-09T05:03:48.721Z,1.75
2023-02-09T05:06:15.568Z,0.35
2023-02-09T05:08:42.465Z,0.00
2023-02-09T05:11:09.658Z,0.00
2023-02-09T05:13:36.672Z,0.95
2023-02-09T05:16:07.875Z,1.55
2023-02-09T05:18:36.389Z,0.10
2023-02-09T05:21:03.699Z,0.20
2023-02-09T05:23:30.940Z,0.40
2023-02-09T05:25:57.638Z,0.10
2023-02-09T05:28:25.244Z,0.08
2023-02-09T05:30:56.328Z,0.45
2023-02-09T05:33:24.602Z,1.65
2023-02-09T05:35:54.530Z,0.20
2023-02-09T05:38:21.343Z,0.30
2023-02-09T05:40:48.262Z,0.05
2023-02-09T05:43:15.217Z,0.00
2023-02-09T05:45:41.943Z,0.10
2023-02-09T05:48:08.826Z,0.00
2023-02-09T05:50:36.041Z,0.10
2023-02-09T05:53:07.576Z,0.60
2023-02-09T05:55:34.380Z,0.10
2023-02-09T05:58:01.037Z,0.15
2023-02-09T06:00:29.788Z,0.00
2023-02-09T06:02:57.088Z,1.75
2023-02-09T06:05:24.120Z,1.25
2023-02-09T06:07:51.309Z,0.88
2023-02-09T06:10:18.624Z,0.17
2023-02-09T06:12:45.384Z,0.85
2023-02-09T06:15:12.299Z,0.17
2023-02-09T06:17:39.069Z,0.75
2023-02-09T06:20:06.352Z,0.55
2023-02-09T06:22:33.064Z,0.47
2023-02-09T06:24:59.942Z,0.52
2023-02-09T06:27:26.731Z,0.73
2023-02-09T06:29:53.541Z,0.20
2023-02-09T06:32:20.305Z,6.95
2023-02-09T06:34:47.119Z,7.00
2023-02-09T06:37:13.813Z,5.97
2023-02-09T06:40:06.966Z,7.15
2023-02-09T06:42:44.012Z,12.10
2023-02-09T06:45:15.657Z,7.68
2023-02-09T06:47:43.996Z,6.63
2023-02-09T06:50:12.195Z,6.82
2023-02-09T06:52:39.084Z,6.23
2023-02-09T06:55:06.709Z,7.53
2023-02-09T06:57:34.981Z,7.90
2023-02-09T07:00:07.398Z,8.83
2023-02-09T07:02:34.500Z,8.27
2023-02-09T07:05:01.178Z,7.27
2023-02-09T07:07:27.931Z,5.77
2023-02-09T07:09:54.737Z,6.20
2023-02-09T07:12:21.422Z,6.80
2023-02-09T07:14:48.198Z,7.20
2023-02-09T07:17:14.865Z,6.30
2023-02-09T07:19:41.630Z,5.10
2023-02-09T07:22:08.364Z,6.50
2023-02-09T07:24:35.104Z,9.77
2023-02-09T07:27:01.754Z,8.53
2023-02-09T07:29:28.608Z,7.17
2023-02-09T07:31:55.316Z,7.20
2023-02-09T07:34:22.134Z,7.77
2023-02-09T07:36:48.911Z,6.00
2023-02-09T07:39:15.913Z,7.10
2023-02-09T07:41:43.025Z,8.57
2023-02-09T07:44:10.541Z,8.67
2023-02-09T07:46:37.234Z,7.87
2023-02-09T07:49:04.565Z,7.67
2023-02-09T07:51:33.343Z,7.13
2023-02-09T07:54:01.119Z,7.60
2023-02-09T07:56:28.451Z,6.35
2023-02-09T07:58:55.851Z,7.18
2023-02-09T08:01:23.129Z,7.57
2023-02-09T08:03:50.467Z,7.77
2023-02-09T08:06:20.915Z,8.07
2023-02-09T08:08:49.522Z,8.48
2023-02-09T08:11:20.639Z,8.15
2023-02-09T08:13:48.060Z,9.48
2023-02-09T08:16:17.752Z,8.77
2023-02-09T08:18:56.245Z,8.83
2023-02-09T08:21:23.131Z,9.52
2023-02-09T08:23:53.501Z,9.23
2023-02-09T08:26:20.432Z,10.20
2023-02-09T08:28:47.306Z,11.13
2023-02-09T08:31:17.151Z,10.38
2023-02-09T08:33:45.509Z,8.30
2023-02-09T08:36:12.562Z,10.73
2023-02-09T08:38:39.568Z,10.50
2023-02-09T08:41:07.838Z,11.70
2023-02-09T08:43:35.472Z,10.55
2023-02-09T08:46:10.847Z,11.57
2023-02-09T08:48:40.233Z,11.55
2023-02-09T08:51:07.773Z,9.48
2023-02-09T08:53:34.703Z,9.45
2023-02-09T08:56:01.628Z,11.80
2023-02-09T08:58:30.195Z,9.50
2023-02-09T09:00:57.312Z,11.48
2023-02-09T09:03:33.842Z,15.20
2023-02-09T09:06:06.836Z,12.57
2023-02-09T09:08:34.631Z,9.88
2023-02-09T09:11:01.404Z,11.70
2023-02-09T09:13:28.761Z,11.13
2023-02-09T09:15:55.976Z,11.88
2023-02-09T09:18:24.364Z,13.02
2023-02-09T09:20:51.507Z,11.35
2023-02-09T09:23:18.840Z,11.80
2023-02-09T09:25:46.046Z,10.93
2023-02-09T09:28:13.094Z,11.10
2023-02-09T09:30:39.834Z,11.73
2023-02-09T09:38:00.883Z,11.43
2023-02-09T10:46:34.661Z,11.60
2023-02-09T14:19:52.401Z,1.15
2023-02-09T14:22:39.185Z,0.30
2023-02-09T14:25:18.362Z,0.43
2023-02-09T14:27:48.335Z,0.98
2023-02-09T14:30:17.236Z,0.75
2023-02-09T14:32:48.443Z,2.05
2023-02-09T14:35:21.131Z,0.38
2023-02-09T14:37:49.302Z,1.27
2023-02-09T14:40:33.976Z,0.65
2023-02-09T14:43:08.785Z,0.68
2023-02-09T14:45:57.104Z,0.65
2023-02-09T14:48:25.592Z,1.15
2023-02-09T14:50:57.340Z,1.67
2023-02-09T14:53:26.402Z,1.17
2023-02-09T14:55:57.210Z,1.45
2023-02-09T15:00:56.568Z,0.75
2023-02-09T15:03:23.889Z,1.48
2023-02-09T15:05:55.004Z,0.73
2023-02-09T15:08:23.860Z,2.03
2023-02-09T15:10:54.197Z,0.80
2023-02-09T15:13:21.478Z,1.45
2023-02-09T15:15:48.571Z,0.82
2023-02-09T15:18:21.146Z,1.45
2023-02-09T15:20:48.727Z,0.55
2023-02-09T15:23:15.601Z,1.55
2023-02-09T15:25:43.205Z,0.57
2023-02-09T15:28:29.175Z,0.10
2023-02-09T15:30:56.965Z,0.10
2023-02-09T15:33:25.362Z,0.65
2023-02-09T15:35:52.246Z,0.98
2023-02-09T15:38:19.314Z,0.40
2023-02-09T15:41:08.321Z,0.52
2023-02-09T15:43:54.176Z,0.63
2023-02-09T15:46:40.004Z,0.95
2023-02-09T15:49:07.650Z,0.17
2023-02-09T15:51:37.264Z,0.22
2023-02-09T15:54:27.188Z,0.82
2023-02-09T15:56:54.972Z,0.95
2023-02-09T15:59:22.786Z,2.38
2023-02-09T16:01:50.737Z,0.52
2023-02-09T16:04:17.652Z,0.35
2023-02-09T16:06:47.788Z,0.63
2023-02-09T16:09:20.684Z,2.13
2023-02-09T16:11:48.496Z,0.40
2023-02-09T16:14:24.189Z,0.95
2023-02-09T16:16:51.849Z,0.57
2023-02-09T16:19:19.549Z,0.05
2023-02-09T16:21:52.083Z,0.65
2023-02-09T16:24:24.970Z,0.57
2023-02-09T16:26:51.939Z,0.17
2023-02-09T16:29:18.706Z,0.75
2023-02-09T16:31:45.565Z,0.52
2023-02-09T16:34:15.545Z,0.57
2023-02-09T16:36:43.031Z,0.22
2023-02-09T16:39:21.437Z,2.05
2023-02-09T16:41:50.449Z,1.17
2023-02-09T16:44:19.221Z,1.20
2023-02-09T16:46:48.577Z,0.80
2023-02-09T16:49:37.188Z,0.93
2023-02-09T16:52:07.503Z,0.73
2023-02-09T16:54:39.487Z,0.45
2023-02-09T16:57:06.238Z,0.40
2023-02-09T16:59:32.928Z,0.43
2023-02-09T17:01:59.994Z,0.35
2023-02-09T17:04:26.759Z,0.03
2023-02-09T17:06:53.549Z,0.50
2023-02-09T17:09:20.457Z,0.10
2023-02-09T17:11:47.310Z,0.65
2023-02-09T17:14:14.314Z,0.82
2023-02-09T17:16:44.667Z,0.40
2023-02-09T17:19:15.349Z,1.05
2023-02-09T17:21:42.514Z,2.40
2023-02-09T17:24:16.957Z,0.82
2023-02-09T17:26:44.193Z,1.83
2023-02-09T17:29:11.315Z,0.40
2023-02-09T17:31:52.488Z,0.43
2023-02-09T17:34:20.646Z,0.05
2023-02-09T17:36:47.426Z,0.10
2023-02-09T17:39:14.223Z,0.13
2023-02-09T17:41:45.348Z,0.10
2023-02-09T17:44:24.247Z,1.02
2023-02-09T17:46:56.018Z,1.55
2023-02-09T17:49:22.766Z,0.55
2023-02-09T17:51:49.626Z,0.50
2023-02-09T17:54:19.023Z,0.20
2023-02-09T17:56:46.118Z,0.63
2023-02-09T17:59:13.426Z,2.58
2023-02-09T18:01:45.800Z,2.13
2023-02-09T18:04:26.689Z,0.10
2023-02-09T18:09:20.142Z,0.38
2023-02-09T18:12:02.205Z,0.40
2023-02-09T18:14:31.671Z,0.60
2023-02-09T18:16:58.894Z,0.82
2023-02-09T18:19:26.017Z,0.40
2023-02-09T18:21:57.530Z,0.50
2023-02-09T18:24:26.570Z,1.55
2023-02-09T18:26:53.271Z,0.28
2023-02-09T18:29:23.601Z,0.43
2023-02-09T18:31:51.102Z,0.00
2023-02-09T18:34:17.958Z,0.30
2023-02-09T18:36:44.715Z,0.82
2023-02-09T18:39:11.472Z,0.73
2023-02-09T18:41:38.176Z,1.35
2023-02-09T18:44:04.831Z,0.82
2023-02-09T18:46:31.612Z,0.68
2023-02-09T18:48:58.526Z,1.00
2023-02-09T18:51:25.374Z,1.38
2023-02-09T18:53:52.440Z,0.65
2023-02-09T18:56:20.502Z,0.10
2023-02-09T18:58:49.766Z,0.32
2023-02-09T19:01:19.940Z,0.60
2023-02-09T19:03:50.318Z,0.80
2023-02-09T19:06:17.327Z,0.25
2023-02-09T19:08:44.062Z,1.23
2023-02-09T19:11:15.672Z,1.15
2023-02-09T19:13:42.550Z,1.20
2023-02-09T19:16:13.802Z,0.85
2023-02-09T19:18:42.280Z,0.20
2023-02-09T19:21:08.976Z,0.70
2023-02-09T19:23:35.725Z,0.05
2023-02-09T19:26:04.113Z,0.10
2023-02-09T19:28:31.530Z,0.38
2023-02-09T19:30:58.308Z,1.75
2023-02-09T19:33:25.460Z,0.65
2023-02-09T19:36:01.052Z,1.73
2023-02-09T19:38:27.886Z,1.58
2023-02-09T19:41:09.717Z,0.60
2023-02-09T19:43:37.384Z,1.00
2023-02-09T19:46:05.312Z,0.38
2023-02-09T19:48:32.244Z,1.13
2023-02-09T19:50:59.304Z,1.35
2023-02-09T19:53:26.762Z,0.43
2023-02-09T19:55:53.885Z,1.02
2023-02-09T19:58:24.063Z,1.45
2023-02-09T20:00:51.705Z,0.98
2023-02-09T20:03:19.828Z,0.57
2023-02-09T20:05:47.105Z,0.20
2023-02-09T20:08:16.945Z,1.83
2023-02-09T20:10:47.772Z,0.30
2023-02-09T20:13:15.748Z,0.52
2023-02-09T20:15:43.554Z,1.73
2023-02-09T20:18:11.418Z,1.00
2023-02-09T20:20:42.447Z,0.10
2023-02-09T20:23:10.182Z,0.15
2023-02-09T20:25:40.305Z,0.50
2023-02-09T20:28:07.203Z,0.20
2023-02-09T20:30:34.097Z,1.85
2023-02-09T20:33:00.956Z,0.73
2023-02-09T20:35:27.736Z,0.10
2023-02-09T20:37:54.585Z,0.35
2023-02-09T20:40:21.679Z,1.45
2023-02-09T20:43:06.750Z,0.40
2023-02-09T20:45:52.118Z,1.90
2023-02-09T20:48:19.622Z,0.38
2023-02-09T20:50:46.602Z,1.08
2023-02-09T20:53:13.543Z,0.25
2023-02-09T20:55:40.342Z,1.00
2023-02-09T20:58:07.221Z,0.50
2023-02-09T21:00:34.040Z,1.15
2023-02-09T21:03:01.024Z,1.67
2023-02-09T21:05:27.782Z,1.75
2023-02-09T21:07:55.472Z,0.95
2023-02-09T21:10:22.660Z,0.57
2023-02-09T21:12:49.426Z,0.10
2023-02-09T21:15:16.310Z,1.02
2023-02-09T21:17:47.995Z,2.30
2023-02-09T21:20:17.733Z,0.75
2023-02-09T21:22:44.448Z,1.98
2023-02-09T21:25:11.757Z,2.00
2023-02-09T21:27:39.028Z,1.45
2023-02-09T21:30:06.556Z,1.25
2023-02-09T21:32:35.014Z,1.23
2023-02-09T21:35:02.066Z,2.50
2023-02-09T21:37:32.252Z,1.08
2023-02-09T21:40:02.983Z,0.35
2023-02-09T21:44:58.655Z,1.45
2023-02-09T21:47:27.361Z,0.68
2023-02-09T21:49:54.303Z,0.43
2023-02-09T21:52:21.076Z,0.93
2023-02-09T21:54:47.905Z,1.17
2023-02-09T21:57:14.589Z,0.05
2023-02-09T21:59:41.383Z,0.43
2023-02-09T22:02:10.113Z,0.40
2023-02-09T22:04:38.617Z,0.73
2023-02-09T22:07:05.619Z,0.85
2023-02-09T22:09:32.477Z,2.00
2023-02-09T22:11:59.950Z,0.17
2023-02-09T22:14:26.831Z,0.70
2023-02-09T22:16:53.604Z,0.10
2023-02-09T22:19:20.352Z,0.00
2023-02-09T22:21:47.131Z,1.20
2023-02-09T22:24:16.609Z,1.17
2023-02-09T22:26:44.428Z,2.58
2023-02-09T22:29:12.596Z,0.30
2023-02-09T22:31:39.718Z,0.77
2023-02-09T22:34:07.371Z,1.20
2023-02-09T22:36:35.229Z,0.70
2023-02-09T22:39:03.104Z,0.10
2023-02-09T22:41:29.934Z,0.55
2023-02-09T22:44:05.099Z,0.38
2023-02-09T22:46:37.123Z,0.00
2023-02-09T22:49:06.519Z,0.10
2023-02-09T22:51:35.453Z,0.17
2023-02-09T22:54:02.782Z,0.35
2023-02-09T22:56:30.063Z,1.08
2023-02-09T22:58:58.353Z,1.40
2023-02-09T23:01:25.494Z,1.40
2023-02-09T23:03:52.729Z,1.02
2023-02-09T23:06:23.406Z,0.10
2023-02-09T23:08:55.618Z,1.88
2023-02-09T23:11:22.730Z,1.00
2023-02-09T23:13:54.969Z,0.20
2023-02-09T23:16:31.074Z,1.27
2023-02-09T23:19:06.627Z,1.77
2023-02-09T23:21:35.851Z,1.48
2023-02-09T23:24:02.774Z,0.77
2023-02-09T23:26:29.633Z,0.47
2023-02-09T23:28:59.560Z,0.85
2023-02-09T23:31:27.020Z,0.25
2023-02-09T23:33:54.533Z,0.93
2023-02-09T23:36:23.672Z,0.10
2023-02-09T23:38:58.448Z,0.60
2023-02-09T23:41:25.268Z,0.55
2023-02-09T23:43:52.420Z,0.17
2023-02-09T23:46:21.954Z,0.10
2023-02-09T23:48:49.472Z,0.40
2023-02-09T23:51:21.562Z,0.73
2023-02-09T23:53:48.413Z,0.30
2023-02-09T23:56:16.476Z,1.10
2023-02-09T23:58:45.650Z,0.80
